sensor_id;sensor_type;location;lat;lon;timestamp;P1;durP1;ratioP1;P2;durP2;ratioP2
37407;SDS011;24866;50.248;8.252;2024-01-15T00:01:49;13.10;;;6.53;;
37407;SDS011;24866;50.248;8.252;2024-01-15T00:04:19;10.38;;;5.43;;
37407;SDS011;24866;50.248;8.252;2024-01-15T00:06:49;11.00;;;5.63;;
37407;SDS011;24866;50.248;8.252;2024-01-15T00:09:19;10.10;;;4.20;;
37407;SDS011;24866;50.248;8.252;2024-01-15T00:11:50;15.98;;;5.35;;
37407;SDS011;24866;50.248;8.252;2024-01-15T00:14:20;14.73;;;5.32;;
37407;SDS011;24866;50.248;8.252;2024-01-15T00:16:51;13.20;;;5.40;;
37407;SDS011;24866;50.248;8.252;2024-01-15T00:19:23;16.38;;;6.68;;
37407;SDS011;24866;50.248;8.252;2024-01-15T00:21:53;16.90;;;7.05;;
37407;SDS011;24866;50.248;8.252;2024-01-15T00:24:23;12.52;;;5.78;;
37407;SDS011;24866;50.248;8.252;2024-01-15T00:26:53;13.55;;;5.78;;
37407;SDS011;24866;50.248;8.252;2024-01-15T00:29:23;14.07;;;6.65;;
37407;SDS011;24866;50.248;8.252;2024-01-15T00:31:55;10.30;;;4.90;;
37407;SDS011;24866;50.248;8.252;2024-01-15T00:34:25;14.83;;;6.43;;
37407;SDS011;24866;50.248;8.252;2024-01-15T00:36:55;13.18;;;5.28;;
37407;SDS011;24866;50.248;8.252;2024-01-15T00:39:25;16.00;;;7.93;;
37407;SDS011;24866;50.248;8.252;2024-01-15T00:41:56;16.02;;;5.45;;
37407;SDS011;24866;50.248;8.252;2024-01-15T00:44:26;13.55;;;7.40;;
37407;SDS011;24866;50.248;8.252;2024-01-15T00:46:57;15.00;;;6.18;;
37407;SDS011;24866;50.248;8.252;2024-01-15T00:49:27;16.17;;;6.18;;
37407;SDS011;24866;50.248;8.252;2024-01-15T00:51:57;17.40;;;9.57;;
37407;SDS011;24866;50.248;8.252;2024-01-15T00:54:28;15.65;;;6.72;;
37407;SDS011;24866;50.248;8.252;2024-01-15T00:56:58;17.67;;;6.80;;
37407;SDS011;24866;50.248;8.252;2024-01-15T00:59:28;15.60;;;6.50;;
37407;SDS011;24866;50.248;8.252;2024-01-15T01:01:59;17.08;;;6.93;;
37407;SDS011;24866;50.248;8.252;2024-01-15T01:04:30;17.23;;;7.22;;
37407;SDS011;24866;50.248;8.252;2024-01-15T01:07:00;16.00;;;6.80;;
37407;SDS011;24866;50.248;8.252;2024-01-15T01:09:30;17.77;;;6.75;;
37407;SDS011;24866;50.248;8.252;2024-01-15T01:12:01;14.75;;;6.38;;
37407;SDS011;24866;50.248;8.252;2024-01-15T01:14:31;17.25;;;8.13;;
37407;SDS011;24866;50.248;8.252;2024-01-15T01:17:03;17.98;;;6.57;;
37407;SDS011;24866;50.248;8.252;2024-01-15T01:19:33;18.73;;;7.07;;
37407;SDS011;24866;50.248;8.252;2024-01-15T01:22:03;16.00;;;6.45;;
37407;SDS011;24866;50.248;8.252;2024-01-15T01:24:33;15.73;;;7.38;;
37407;SDS011;24866;50.248;8.252;2024-01-15T01:27:06;16.08;;;6.65;;
37407;SDS011;24866;50.248;8.252;2024-01-15T01:29:37;19.45;;;7.70;;
37407;SDS011;24866;50.248;8.252;2024-01-15T01:32:08;18.33;;;7.05;;
37407;SDS011;24866;50.248;8.252;2024-01-15T01:34:39;15.43;;;7.85;;
37407;SDS011;24866;50.248;8.252;2024-01-15T01:37:10;17.27;;;9.45;;
37407;SDS011;24866;50.248;8.252;2024-01-15T01:39:41;15.05;;;6.65;;
37407;SDS011;24866;50.248;8.252;2024-01-15T01:42:12;17.45;;;7.47;;
37407;SDS011;24866;50.248;8.252;2024-01-15T01:44:42;13.00;;;5.90;;
37407;SDS011;24866;50.248;8.252;2024-01-15T01:47:13;18.90;;;7.28;;
37407;SDS011;24866;50.248;8.252;2024-01-15T01:49:44;17.85;;;6.70;;
37407;SDS011;24866;50.248;8.252;2024-01-15T01:52:15;17.67;;;7.35;;
37407;SDS011;24866;50.248;8.252;2024-01-15T01:54:45;14.40;;;6.35;;
37407;SDS011;24866;50.248;8.252;2024-01-15T01:57:15;13.07;;;5.55;;
37407;SDS011;24866;50.248;8.252;2024-01-15T01:59:46;13.38;;;6.25;;
37407;SDS011;24866;50.248;8.252;2024-01-15T02:02:18;17.63;;;7.35;;
37407;SDS011;24866;50.248;8.252;2024-01-15T02:04:48;15.17;;;5.83;;
37407;SDS011;24866;50.248;8.252;2024-01-15T02:07:19;19.67;;;6.82;;
37407;SDS011;24866;50.248;8.252;2024-01-15T02:09:49;19.08;;;7.18;;
37407;SDS011;24866;50.248;8.252;2024-01-15T02:12:19;16.30;;;6.15;;
37407;SDS011;24866;50.248;8.252;2024-01-15T02:14:49;19.73;;;7.90;;
37407;SDS011;24866;50.248;8.252;2024-01-15T02:17:20;19.00;;;6.85;;
37407;SDS011;24866;50.248;8.252;2024-01-15T02:19:51;12.20;;;6.53;;
37407;SDS011;24866;50.248;8.252;2024-01-15T02:22:21;17.92;;;7.05;;
37407;SDS011;24866;50.248;8.252;2024-01-15T02:24:52;18.50;;;7.45;;
37407;SDS011;24866;50.248;8.252;2024-01-15T02:27:23;15.45;;;6.53;;
37407;SDS011;24866;50.248;8.252;2024-01-15T02:29:53;16.85;;;6.60;;
37407;SDS011;24866;50.248;8.252;2024-01-15T02:32:25;12.32;;;5.63;;
37407;SDS011;24866;50.248;8.252;2024-01-15T02:34:55;17.55;;;7.65;;
37407;SDS011;24866;50.248;8.252;2024-01-15T02:37:26;17.63;;;6.45;;
37407;SDS011;24866;50.248;8.252;2024-01-15T02:39:57;14.48;;;6.35;;
37407;SDS011;24866;50.248;8.252;2024-01-15T02:42:28;14.77;;;5.85;;
37407;SDS011;24866;50.248;8.252;2024-01-15T02:44:58;15.88;;;6.53;;
37407;SDS011;24866;50.248;8.252;2024-01-15T02:47:28;19.45;;;7.10;;
37407;SDS011;24866;50.248;8.252;2024-01-15T02:49:58;15.75;;;7.25;;
37407;SDS011;24866;50.248;8.252;2024-01-15T02:52:28;20.40;;;7.93;;
37407;SDS011;24866;50.248;8.252;2024-01-15T02:54:59;14.65;;;5.90;;
37407;SDS011;24866;50.248;8.252;2024-01-15T02:57:30;17.33;;;6.60;;
37407;SDS011;24866;50.248;8.252;2024-01-15T03:00:00;16.52;;;6.53;;
37407;SDS011;24866;50.248;8.252;2024-01-15T03:02:29;16.42;;;7.30;;
37407;SDS011;24866;50.248;8.252;2024-01-15T03:05:00;15.18;;;5.68;;
37407;SDS011;24866;50.248;8.252;2024-01-15T03:07:30;15.60;;;6.55;;
37407;SDS011;24866;50.248;8.252;2024-01-15T03:10:02;18.27;;;7.05;;
37407;SDS011;24866;50.248;8.252;2024-01-15T03:12:32;19.55;;;7.25;;
37407;SDS011;24866;50.248;8.252;2024-01-15T03:15:02;18.55;;;6.68;;
37407;SDS011;24866;50.248;8.252;2024-01-15T03:17:33;17.98;;;5.93;;
37407;SDS011;24866;50.248;8.252;2024-01-15T03:20:03;17.50;;;7.13;;
37407;SDS011;24866;50.248;8.252;2024-01-15T03:22:33;17.40;;;7.40;;
37407;SDS011;24866;50.248;8.252;2024-01-15T03:25:05;16.25;;;8.02;;
37407;SDS011;24866;50.248;8.252;2024-01-15T03:27:35;19.50;;;7.32;;
37407;SDS011;24866;50.248;8.252;2024-01-15T03:30:06;16.20;;;6.85;;
37407;SDS011;24866;50.248;8.252;2024-01-15T03:32:36;20.63;;;7.45;;
37407;SDS011;24866;50.248;8.252;2024-01-15T03:35:07;18.60;;;8.05;;
37407;SDS011;24866;50.248;8.252;2024-01-15T03:37:37;15.75;;;6.85;;
37407;SDS011;24866;50.248;8.252;2024-01-15T03:40:09;19.40;;;6.78;;
37407;SDS011;24866;50.248;8.252;2024-01-15T03:42:40;17.50;;;6.53;;
37407;SDS011;24866;50.248;8.252;2024-01-15T03:45:10;14.85;;;6.82;;
37407;SDS011;24866;50.248;8.252;2024-01-15T03:47:40;19.77;;;8.13;;
37407;SDS011;24866;50.248;8.252;2024-01-15T03:50:10;16.02;;;7.07;;
37407;SDS011;24866;50.248;8.252;2024-01-15T03:52:40;13.27;;;5.68;;
37407;SDS011;24866;50.248;8.252;2024-01-15T03:55:11;23.83;;;6.95;;
37407;SDS011;24866;50.248;8.252;2024-01-15T03:57:41;17.17;;;7.97;;
37407;SDS011;24866;50.248;8.252;2024-01-15T04:00:13;15.02;;;7.07;;
37407;SDS011;24866;50.248;8.252;2024-01-15T04:02:45;17.33;;;7.70;;
37407;SDS011;24866;50.248;8.252;2024-01-15T04:05:15;18.73;;;7.95;;
37407;SDS011;24866;50.248;8.252;2024-01-15T04:07:45;21.15;;;8.15;;
37407;SDS011;24866;50.248;8.252;2024-01-15T04:10:17;15.48;;;7.40;;
37407;SDS011;24866;50.248;8.252;2024-01-15T04:12:47;16.87;;;7.13;;
37407;SDS011;24866;50.248;8.252;2024-01-15T04:15:17;20.02;;;7.20;;
37407;SDS011;24866;50.248;8.252;2024-01-15T04:17:47;14.70;;;6.22;;
37407;SDS011;24866;50.248;8.252;2024-01-15T04:20:17;19.15;;;8.73;;
37407;SDS011;24866;50.248;8.252;2024-01-15T04:22:47;21.00;;;7.28;;
37407;SDS011;24866;50.248;8.252;2024-01-15T04:25:19;13.18;;;6.00;;
37407;SDS011;24866;50.248;8.252;2024-01-15T04:27:49;17.97;;;8.07;;
37407;SDS011;24866;50.248;8.252;2024-01-15T04:30:19;18.30;;;7.10;;
37407;SDS011;24866;50.248;8.252;2024-01-15T04:32:49;23.05;;;8.15;;
37407;SDS011;24866;50.248;8.252;2024-01-15T04:35:19;17.33;;;7.05;;
37407;SDS011;24866;50.248;8.252;2024-01-15T04:37:49;24.27;;;7.68;;
37407;SDS011;24866;50.248;8.252;2024-01-15T04:40:21;15.00;;;4.57;;
37407;SDS011;24866;50.248;8.252;2024-01-15T04:42:51;17.83;;;6.70;;
37407;SDS011;24866;50.248;8.252;2024-01-15T04:45:21;21.27;;;6.88;;
37407;SDS011;24866;50.248;8.252;2024-01-15T04:47:56;16.10;;;6.40;;
37407;SDS011;24866;50.248;8.252;2024-01-15T04:50:26;15.10;;;7.07;;
37407;SDS011;24866;50.248;8.252;2024-01-15T04:52:56;20.35;;;8.15;;
37407;SDS011;24866;50.248;8.252;2024-01-15T04:55:28;18.10;;;7.50;;
37407;SDS011;24866;50.248;8.252;2024-01-15T04:57:58;19.25;;;8.98;;
37407;SDS011;24866;50.248;8.252;2024-01-15T05:00:28;19.60;;;7.90;;
37407;SDS011;24866;50.248;8.252;2024-01-15T05:02:58;19.50;;;6.95;;
37407;SDS011;24866;50.248;8.252;2024-01-15T05:05:28;18.52;;;8.73;;
37407;SDS011;24866;50.248;8.252;2024-01-15T05:07:58;17.85;;;8.10;;
37407;SDS011;24866;50.248;8.252;2024-01-15T05:10:30;16.20;;;6.55;;
37407;SDS011;24866;50.248;8.252;2024-01-15T05:13:00;40.67;;;9.00;;
37407;SDS011;24866;50.248;8.252;2024-01-15T05:15:30;18.08;;;8.10;;
37407;SDS011;24866;50.248;8.252;2024-01-15T05:18:00;22.25;;;10.07;;
37407;SDS011;24866;50.248;8.252;2024-01-15T05:20:30;17.92;;;8.90;;
37407;SDS011;24866;50.248;8.252;2024-01-15T05:23:00;16.92;;;7.03;;
37407;SDS011;24866;50.248;8.252;2024-01-15T05:25:32;17.17;;;7.90;;
37407;SDS011;24866;50.248;8.252;2024-01-15T05:28:02;18.17;;;7.50;;
37407;SDS011;24866;50.248;8.252;2024-01-15T05:30:32;20.63;;;6.90;;
37407;SDS011;24866;50.248;8.252;2024-01-15T05:33:03;20.33;;;7.35;;
37407;SDS011;24866;50.248;8.252;2024-01-15T05:35:33;18.75;;;6.88;;
37407;SDS011;24866;50.248;8.252;2024-01-15T05:38:03;16.38;;;6.47;;
37407;SDS011;24866;50.248;8.252;2024-01-15T05:40:35;20.45;;;7.18;;
37407;SDS011;24866;50.248;8.252;2024-01-15T05:43:05;19.20;;;7.80;;
37407;SDS011;24866;50.248;8.252;2024-01-15T05:45:35;20.20;;;7.70;;
37407;SDS011;24866;50.248;8.252;2024-01-15T05:48:05;19.50;;;8.18;;
37407;SDS011;24866;50.248;8.252;2024-01-15T05:50:35;21.42;;;9.82;;
37407;SDS011;24866;50.248;8.252;2024-01-15T05:53:05;20.30;;;7.95;;
37407;SDS011;24866;50.248;8.252;2024-01-15T05:55:37;20.30;;;7.82;;
37407;SDS011;24866;50.248;8.252;2024-01-15T05:58:07;16.67;;;7.10;;
37407;SDS011;24866;50.248;8.252;2024-01-15T06:00:37;20.90;;;9.00;;
37407;SDS011;24866;50.248;8.252;2024-01-15T06:03:08;23.52;;;7.65;;
37407;SDS011;24866;50.248;8.252;2024-01-15T06:05:38;21.95;;;8.38;;
37407;SDS011;24866;50.248;8.252;2024-01-15T06:08:08;18.60;;;8.38;;
37407;SDS011;24866;50.248;8.252;2024-01-15T06:10:40;20.48;;;8.57;;
37407;SDS011;24866;50.248;8.252;2024-01-15T06:13:10;18.30;;;7.80;;
37407;SDS011;24866;50.248;8.252;2024-01-15T06:15:41;18.90;;;8.13;;
37407;SDS011;24866;50.248;8.252;2024-01-15T06:18:11;20.45;;;9.38;;
37407;SDS011;24866;50.248;8.252;2024-01-15T06:20:42;19.67;;;7.47;;
37407;SDS011;24866;50.248;8.252;2024-01-15T06:23:12;21.98;;;8.85;;
37407;SDS011;24866;50.248;8.252;2024-01-15T06:25:43;20.35;;;8.27;;
37407;SDS011;24866;50.248;8.252;2024-01-15T06:28:13;16.90;;;7.30;;
37407;SDS011;24866;50.248;8.252;2024-01-15T06:30:44;19.95;;;7.35;;
37407;SDS011;24866;50.248;8.252;2024-01-15T06:33:14;12.70;;;6.32;;
37407;SDS011;24866;50.248;8.252;2024-01-15T06:35:44;20.60;;;8.23;;
37407;SDS011;24866;50.248;8.252;2024-01-15T06:38:14;17.75;;;8.32;;
37407;SDS011;24866;50.248;8.252;2024-01-15T06:40:45;22.98;;;9.43;;
37407;SDS011;24866;50.248;8.252;2024-01-15T06:43:16;22.90;;;9.55;;
37407;SDS011;24866;50.248;8.252;2024-01-15T06:45:46;22.42;;;9.88;;
37407;SDS011;24866;50.248;8.252;2024-01-15T06:48:16;25.60;;;11.02;;
37407;SDS011;24866;50.248;8.252;2024-01-15T06:50:46;27.02;;;10.70;;
37407;SDS011;24866;50.248;8.252;2024-01-15T06:53:16;24.48;;;10.63;;
37407;SDS011;24866;50.248;8.252;2024-01-15T06:55:48;23.58;;;9.25;;
37407;SDS011;24866;50.248;8.252;2024-01-15T07:00:49;20.02;;;6.97;;
37407;SDS011;24866;50.248;8.252;2024-01-15T07:03:19;23.27;;;8.73;;
37407;SDS011;24866;50.248;8.252;2024-01-15T07:05:49;24.63;;;10.05;;
37407;SDS011;24866;50.248;8.252;2024-01-15T07:08:19;26.60;;;9.85;;
37407;SDS011;24866;50.248;8.252;2024-01-15T07:10:51;20.25;;;9.13;;
37407;SDS011;24866;50.248;8.252;2024-01-15T07:13:21;16.80;;;7.27;;
37407;SDS011;24866;50.248;8.252;2024-01-15T07:15:51;23.02;;;8.88;;
37407;SDS011;24866;50.248;8.252;2024-01-15T07:18:21;22.08;;;9.07;;
37407;SDS011;24866;50.248;8.252;2024-01-15T07:20:51;28.80;;;7.57;;
37407;SDS011;24866;50.248;8.252;2024-01-15T07:23:22;19.85;;;9.07;;
37407;SDS011;24866;50.248;8.252;2024-01-15T07:25:53;16.80;;;8.07;;
37407;SDS011;24866;50.248;8.252;2024-01-15T07:28:23;24.87;;;9.00;;
37407;SDS011;24866;50.248;8.252;2024-01-15T07:30:53;21.88;;;8.65;;
37407;SDS011;24866;50.248;8.252;2024-01-15T07:33:23;22.23;;;10.45;;
37407;SDS011;24866;50.248;8.252;2024-01-15T07:35:54;24.95;;;8.27;;
37407;SDS011;24866;50.248;8.252;2024-01-15T07:38:24;28.25;;;11.43;;
37407;SDS011;24866;50.248;8.252;2024-01-15T07:40:55;23.23;;;9.65;;
37407;SDS011;24866;50.248;8.252;2024-01-15T07:43:26;22.65;;;9.80;;
37407;SDS011;24866;50.248;8.252;2024-01-15T07:45:57;22.52;;;8.43;;
37407;SDS011;24866;50.248;8.252;2024-01-15T07:48:27;23.98;;;9.32;;
37407;SDS011;24866;50.248;8.252;2024-01-15T07:50:57;22.77;;;9.38;;
37407;SDS011;24866;50.248;8.252;2024-01-15T07:53:27;19.95;;;9.13;;
37407;SDS011;24866;50.248;8.252;2024-01-15T07:55:59;26.65;;;10.05;;
37407;SDS011;24866;50.248;8.252;2024-01-15T07:58:29;21.02;;;8.00;;
37407;SDS011;24866;50.248;8.252;2024-01-15T08:00:59;23.45;;;8.98;;
37407;SDS011;24866;50.248;8.252;2024-01-15T08:03:29;24.27;;;10.05;;
37407;SDS011;24866;50.248;8.252;2024-01-15T08:05:59;16.25;;;6.15;;
37407;SDS011;24866;50.248;8.252;2024-01-15T08:08:29;28.05;;;10.65;;
37407;SDS011;24866;50.248;8.252;2024-01-15T08:11:01;22.17;;;10.52;;
37407;SDS011;24866;50.248;8.252;2024-01-15T08:13:31;23.40;;;9.00;;
37407;SDS011;24866;50.248;8.252;2024-01-15T08:16:01;23.15;;;9.35;;
37407;SDS011;24866;50.248;8.252;2024-01-15T08:18:31;21.42;;;8.50;;
37407;SDS011;24866;50.248;8.252;2024-01-15T08:21:02;18.85;;;8.10;;
37407;SDS011;24866;50.248;8.252;2024-01-15T08:23:32;23.73;;;9.13;;
37407;SDS011;24866;50.248;8.252;2024-01-15T08:26:05;19.88;;;8.63;;
37407;SDS011;24866;50.248;8.252;2024-01-15T08:28:35;18.73;;;8.82;;
37407;SDS011;24866;50.248;8.252;2024-01-15T08:31:05;18.50;;;7.60;;
37407;SDS011;24866;50.248;8.252;2024-01-15T08:33:35;21.40;;;9.25;;
37407;SDS011;24866;50.248;8.252;2024-01-15T08:36:05;22.65;;;9.43;;
37407;SDS011;24866;50.248;8.252;2024-01-15T08:38:36;18.38;;;8.75;;
37407;SDS011;24866;50.248;8.252;2024-01-15T08:41:07;22.25;;;8.43;;
37407;SDS011;24866;50.248;8.252;2024-01-15T08:43:37;16.88;;;8.40;;
37407;SDS011;24866;50.248;8.252;2024-01-15T08:46:07;18.23;;;8.15;;
37407;SDS011;24866;50.248;8.252;2024-01-15T08:48:38;20.58;;;8.82;;
37407;SDS011;24866;50.248;8.252;2024-01-15T08:51:08;17.05;;;8.50;;
37407;SDS011;24866;50.248;8.252;2024-01-15T08:53:38;19.38;;;8.82;;
37407;SDS011;24866;50.248;8.252;2024-01-15T08:56:09;13.60;;;6.97;;
37407;SDS011;24866;50.248;8.252;2024-01-15T08:58:40;21.08;;;8.45;;
37407;SDS011;24866;50.248;8.252;2024-01-15T09:01:10;16.08;;;6.22;;
37407;SDS011;24866;50.248;8.252;2024-01-15T09:03:40;21.70;;;9.45;;
37407;SDS011;24866;50.248;8.252;2024-01-15T09:06:10;21.17;;;8.52;;
37407;SDS011;24866;50.248;8.252;2024-01-15T09:08:41;17.40;;;8.35;;
37407;SDS011;24866;50.248;8.252;2024-01-15T09:11:12;16.10;;;7.47;;
37407;SDS011;24866;50.248;8.252;2024-01-15T09:13:42;19.20;;;8.00;;
37407;SDS011;24866;50.248;8.252;2024-01-15T09:16:13;17.55;;;7.65;;
37407;SDS011;24866;50.248;8.252;2024-01-15T09:18:43;18.10;;;8.02;;
37407;SDS011;24866;50.248;8.252;2024-01-15T09:21:15;14.93;;;7.63;;
37407;SDS011;24866;50.248;8.252;2024-01-15T09:23:45;17.88;;;7.22;;
37407;SDS011;24866;50.248;8.252;2024-01-15T09:26:16;18.98;;;7.95;;
37407;SDS011;24866;50.248;8.252;2024-01-15T09:28:47;20.02;;;8.65;;
37407;SDS011;24866;50.248;8.252;2024-01-15T09:31:17;20.83;;;8.25;;
37407;SDS011;24866;50.248;8.252;2024-01-15T09:33:48;15.43;;;6.50;;
37407;SDS011;24866;50.248;8.252;2024-01-15T09:36:20;18.10;;;7.93;;
37407;SDS011;24866;50.248;8.252;2024-01-15T09:38:50;16.17;;;6.40;;
37407;SDS011;24866;50.248;8.252;2024-01-15T09:41:22;16.23;;;7.38;;
37407;SDS011;24866;50.248;8.252;2024-01-15T09:43:53;16.58;;;6.88;;
37407;SDS011;24866;50.248;8.252;2024-01-15T09:46:23;13.85;;;7.13;;
37407;SDS011;24866;50.248;8.252;2024-01-15T09:48:54;15.32;;;6.82;;
37407;SDS011;24866;50.248;8.252;2024-01-15T09:51:24;17.42;;;7.03;;
37407;SDS011;24866;50.248;8.252;2024-01-15T09:53:54;14.40;;;5.68;;
37407;SDS011;24866;50.248;8.252;2024-01-15T09:56:26;13.38;;;5.65;;
37407;SDS011;24866;50.248;8.252;2024-01-15T09:58:56;13.75;;;4.95;;
37407;SDS011;24866;50.248;8.252;2024-01-15T10:01:28;16.13;;;6.70;;
37407;SDS011;24866;50.248;8.252;2024-01-15T10:03:58;15.53;;;5.50;;
37407;SDS011;24866;50.248;8.252;2024-01-15T10:06:29;11.65;;;5.53;;
37407;SDS011;24866;50.248;8.252;2024-01-15T10:08:59;12.57;;;4.95;;
37407;SDS011;24866;50.248;8.252;2024-01-15T10:11:32;15.70;;;7.20;;
37407;SDS011;24866;50.248;8.252;2024-01-15T10:14:03;8.47;;;4.03;;
37407;SDS011;24866;50.248;8.252;2024-01-15T10:16:34;11.38;;;4.85;;
37407;SDS011;24866;50.248;8.252;2024-01-15T10:19:04;12.45;;;5.55;;
37407;SDS011;24866;50.248;8.252;2024-01-15T10:21:35;15.27;;;6.07;;
37407;SDS011;24866;50.248;8.252;2024-01-15T10:24:06;11.82;;;5.93;;
37407;SDS011;24866;50.248;8.252;2024-01-15T10:26:37;9.32;;;4.50;;
37407;SDS011;24866;50.248;8.252;2024-01-15T10:29:07;9.27;;;4.30;;
37407;SDS011;24866;50.248;8.252;2024-01-15T10:31:38;11.18;;;4.57;;
37407;SDS011;24866;50.248;8.252;2024-01-15T10:34:10;11.23;;;4.82;;
37407;SDS011;24866;50.248;8.252;2024-01-15T10:36:41;11.27;;;5.23;;
37407;SDS011;24866;50.248;8.252;2024-01-15T10:39:14;13.48;;;5.97;;
37407;SDS011;24866;50.248;8.252;2024-01-15T10:41:45;9.63;;;3.85;;
37407;SDS011;24866;50.248;8.252;2024-01-15T10:44:15;12.15;;;5.57;;
37407;SDS011;24866;50.248;8.252;2024-01-15T10:46:45;10.40;;;4.55;;
37407;SDS011;24866;50.248;8.252;2024-01-15T10:49:16;10.18;;;4.72;;
37407;SDS011;24866;50.248;8.252;2024-01-15T10:51:47;9.17;;;4.77;;
37407;SDS011;24866;50.248;8.252;2024-01-15T10:54:19;9.60;;;4.32;;
37407;SDS011;24866;50.248;8.252;2024-01-15T10:56:52;9.75;;;4.20;;
37407;SDS011;24866;50.248;8.252;2024-01-15T10:59:23;11.27;;;4.13;;
37407;SDS011;24866;50.248;8.252;2024-01-15T11:01:53;14.35;;;5.40;;
37407;SDS011;24866;50.248;8.252;2024-01-15T11:04:24;13.50;;;5.93;;
37407;SDS011;24866;50.248;8.252;2024-01-15T11:06:55;11.02;;;4.30;;
37407;SDS011;24866;50.248;8.252;2024-01-15T11:09:25;10.27;;;4.97;;
37407;SDS011;24866;50.248;8.252;2024-01-15T11:12:06;10.25;;;5.03;;
37407;SDS011;24866;50.248;8.252;2024-01-15T11:14:38;12.30;;;5.18;;
37407;SDS011;24866;50.248;8.252;2024-01-15T11:17:10;10.15;;;4.05;;
37407;SDS011;24866;50.248;8.252;2024-01-15T11:19:44;12.43;;;5.88;;
37407;SDS011;24866;50.248;8.252;2024-01-15T11:25:12;11.57;;;4.75;;
37407;SDS011;24866;50.248;8.252;2024-01-15T11:27:44;9.45;;;4.60;;
37407;SDS011;24866;50.248;8.252;2024-01-15T11:30:17;11.27;;;5.28;;
37407;SDS011;24866;50.248;8.252;2024-01-15T11:32:48;11.82;;;4.43;;
37407;SDS011;24866;50.248;8.252;2024-01-15T11:35:18;10.50;;;4.47;;
37407;SDS011;24866;50.248;8.252;2024-01-15T11:37:57;8.95;;;4.78;;
37407;SDS011;24866;50.248;8.252;2024-01-15T11:40:39;8.07;;;4.13;;
37407;SDS011;24866;50.248;8.252;2024-01-15T11:43:12;8.90;;;3.42;;
37407;SDS011;24866;50.248;8.252;2024-01-15T11:45:45;13.30;;;6.40;;
37407;SDS011;24866;50.248;8.252;2024-01-15T11:48:15;12.90;;;6.25;;
37407;SDS011;24866;50.248;8.252;2024-01-15T11:50:46;9.63;;;5.10;;
37407;SDS011;24866;50.248;8.252;2024-01-15T11:53:21;10.52;;;5.45;;
37407;SDS011;24866;50.248;8.252;2024-01-15T11:55:52;12.40;;;4.30;;
37407;SDS011;24866;50.248;8.252;2024-01-15T11:58:24;12.95;;;4.50;;
37407;SDS011;24866;50.248;8.252;2024-01-15T12:00:54;13.07;;;6.13;;
37407;SDS011;24866;50.248;8.252;2024-01-15T12:03:25;11.07;;;4.40;;
37407;SDS011;24866;50.248;8.252;2024-01-15T12:05:55;10.68;;;6.05;;
37407;SDS011;24866;50.248;8.252;2024-01-15T12:08:26;20.40;;;8.45;;
37407;SDS011;24866;50.248;8.252;2024-01-15T12:10:57;10.05;;;4.35;;
37407;SDS011;24866;50.248;8.252;2024-01-15T12:13:28;18.08;;;5.00;;
37407;SDS011;24866;50.248;8.252;2024-01-15T12:16:00;10.85;;;4.32;;
37407;SDS011;24866;50.248;8.252;2024-01-15T12:18:32;10.20;;;4.35;;
37407;SDS011;24866;50.248;8.252;2024-01-15T12:21:03;10.25;;;4.22;;
37407;SDS011;24866;50.248;8.252;2024-01-15T12:23:34;9.53;;;4.37;;
37407;SDS011;24866;50.248;8.252;2024-01-15T12:26:04;9.18;;;4.60;;
37407;SDS011;24866;50.248;8.252;2024-01-15T12:28:36;17.08;;;7.43;;
37407;SDS011;24866;50.248;8.252;2024-01-15T12:31:07;13.70;;;4.63;;
37407;SDS011;24866;50.248;8.252;2024-01-15T12:33:38;15.30;;;7.30;;
37407;SDS011;24866;50.248;8.252;2024-01-15T12:36:08;17.10;;;5.80;;
37407;SDS011;24866;50.248;8.252;2024-01-15T12:38:39;14.50;;;6.47;;
37407;SDS011;24866;50.248;8.252;2024-01-15T12:41:09;9.32;;;4.07;;
37407;SDS011;24866;50.248;8.252;2024-01-15T12:43:40;12.55;;;5.72;;
37407;SDS011;24866;50.248;8.252;2024-01-15T12:46:11;11.83;;;5.00;;
37407;SDS011;24866;50.248;8.252;2024-01-15T12:48:41;12.40;;;5.13;;
37407;SDS011;24866;50.248;8.252;2024-01-15T12:51:12;11.23;;;4.28;;
37407;SDS011;24866;50.248;8.252;2024-01-15T12:53:42;11.18;;;4.57;;
37407;SDS011;24866;50.248;8.252;2024-01-15T12:56:12;14.10;;;6.03;;
37407;SDS011;24866;50.248;8.252;2024-01-15T12:58:44;11.52;;;5.20;;
37407;SDS011;24866;50.248;8.252;2024-01-15T13:01:15;12.52;;;5.20;;
37407;SDS011;24866;50.248;8.252;2024-01-15T13:03:45;13.65;;;6.30;;
37407;SDS011;24866;50.248;8.252;2024-01-15T13:06:15;16.65;;;6.68;;
37407;SDS011;24866;50.248;8.252;2024-01-15T13:08:46;14.45;;;5.70;;
37407;SDS011;24866;50.248;8.252;2024-01-15T13:11:16;15.57;;;5.70;;
37407;SDS011;24866;50.248;8.252;2024-01-15T13:13:48;13.35;;;5.28;;
37407;SDS011;24866;50.248;8.252;2024-01-15T13:16:18;14.93;;;6.60;;
37407;SDS011;24866;50.248;8.252;2024-01-15T13:18:49;14.85;;;8.15;;
37407;SDS011;24866;50.248;8.252;2024-01-15T13:21:19;15.27;;;6.82;;
37407;SDS011;24866;50.248;8.252;2024-01-15T13:23:49;11.82;;;6.38;;
37407;SDS011;24866;50.248;8.252;2024-01-15T13:26:20;25.38;;;7.97;;
37407;SDS011;24866;50.248;8.252;2024-01-15T13:28:52;16.92;;;5.65;;
37407;SDS011;24866;50.248;8.252;2024-01-15T13:31:23;7.90;;;4.03;;
37407;SDS011;24866;50.248;8.252;2024-01-15T13:33:53;15.88;;;5.88;;
37407;SDS011;24866;50.248;8.252;2024-01-15T13:36:24;12.10;;;6.10;;
37407;SDS011;24866;50.248;8.252;2024-01-15T13:38:55;9.70;;;3.25;;
37407;SDS011;24866;50.248;8.252;2024-01-15T13:41:25;11.30;;;4.05;;
37407;SDS011;24866;50.248;8.252;2024-01-15T13:46:29;13.73;;;5.28;;
37407;SDS011;24866;50.248;8.252;2024-01-15T13:48:59;11.33;;;4.87;;
37407;SDS011;24866;50.248;8.252;2024-01-15T13:51:30;12.63;;;5.00;;
37407;SDS011;24866;50.248;8.252;2024-01-15T13:54:00;13.52;;;5.40;;
37407;SDS011;24866;50.248;8.252;2024-01-15T13:56:33;11.95;;;4.40;;
37407;SDS011;24866;50.248;8.252;2024-01-15T13:59:03;10.55;;;5.18;;
37407;SDS011;24866;50.248;8.252;2024-01-15T14:01:35;7.55;;;3.17;;
37407;SDS011;24866;50.248;8.252;2024-01-15T14:04:05;10.80;;;3.90;;
37407;SDS011;24866;50.248;8.252;2024-01-15T14:06:36;8.68;;;4.10;;
37407;SDS011;24866;50.248;8.252;2024-01-15T14:09:07;7.75;;;3.83;;
37407;SDS011;24866;50.248;8.252;2024-01-15T14:11:38;6.63;;;2.67;;
37407;SDS011;24866;50.248;8.252;2024-01-15T14:14:08;10.63;;;3.72;;
37407;SDS011;24866;50.248;8.252;2024-01-15T14:16:40;9.60;;;2.38;;
37407;SDS011;24866;50.248;8.252;2024-01-15T14:19:10;8.68;;;4.10;;
37407;SDS011;24866;50.248;8.252;2024-01-15T14:21:40;8.32;;;3.15;;
37407;SDS011;24866;50.248;8.252;2024-01-15T14:24:11;9.32;;;3.72;;
37407;SDS011;24866;50.248;8.252;2024-01-15T14:26:41;6.07;;;2.75;;
37407;SDS011;24866;50.248;8.252;2024-01-15T14:29:12;7.90;;;3.92;;
37407;SDS011;24866;50.248;8.252;2024-01-15T14:31:45;9.07;;;5.43;;
37407;SDS011;24866;50.248;8.252;2024-01-15T14:34:15;9.23;;;3.97;;
37407;SDS011;24866;50.248;8.252;2024-01-15T14:36:46;9.07;;;3.83;;
37407;SDS011;24866;50.248;8.252;2024-01-15T14:39:17;10.48;;;4.35;;
37407;SDS011;24866;50.248;8.252;2024-01-15T14:41:48;8.60;;;2.78;;
37407;SDS011;24866;50.248;8.252;2024-01-15T14:44:18;14.10;;;4.03;;
37407;SDS011;24866;50.248;8.252;2024-01-15T14:46:50;6.47;;;2.88;;
37407;SDS011;24866;50.248;8.252;2024-01-15T14:49:21;8.93;;;4.38;;
37407;SDS011;24866;50.248;8.252;2024-01-15T14:51:51;10.73;;;3.53;;
37407;SDS011;24866;50.248;8.252;2024-01-15T14:54:22;8.75;;;3.55;;
37407;SDS011;24866;50.248;8.252;2024-01-15T14:56:53;6.13;;;3.47;;
37407;SDS011;24866;50.248;8.252;2024-01-15T14:59:25;7.05;;;3.00;;
37407;SDS011;24866;50.248;8.252;2024-01-15T15:01:58;10.32;;;4.20;;
37407;SDS011;24866;50.248;8.252;2024-01-15T15:04:29;10.40;;;3.20;;